Latest Weather Observations for Dubbo

IDN60801

Issued at 10:05 pm EST Monday 28 July 2014 (issued every 30 minutes, with the page automatically refreshed every 10 minutes)

About weather observations | Map of weather stations | Latest weather observations for NSW | Other Formats
Station Details ID: 065070 Name: DUBBO AIRPORT AWS Lat: -32.22 Lon: 148.58 Height: 284.0 m
Data from the previous 72 hours. | See also: Recent months at Dubbo
Date/Time
EST
Temp
°C
App
Temp
°C
Dew
Point
Rel
Hum
%
Delta-T
°C
Wind Press
QNH
hPa
Press
MSL
hPa
Rain
since 9 am
mm
Dir
 
Spd
km/h
Gust
km/h
Spd
kts
Gust
kts
28/10:00pm 5.8 3.2 4.0 88 0.8 ENE 7 9 4 5 1021.8 1022.2 0.0
28/09:30pm 6.0 3.4 4.0 87 0.9 ENE 7 7 4 4 1021.9 - 0.0
28/09:00pm 6.6 4.0 4.4 86 1.0 ENE 7 9 4 5 1021.9 1022.3 0.0
28/08:30pm 7.0 4.4 4.1 82 1.3 ENE 7 7 4 4 1021.8 - 0.0
28/08:00pm 8.3 7.2 5.1 80 1.4 CALM 0 0 0 0 1021.8 1022.2 0.0
28/07:30pm 8.3 6.4 4.9 79 1.5 N 4 9 2 5 1021.6 - 0.0
28/07:00pm 8.9 7.4 4.9 76 1.8 NW 2 6 1 3 1021.5 1021.9 0.0
28/06:30pm 9.5 8.4 4.9 73 2.1 CALM 0 0 0 0 1021.4 - 0.0
28/06:00pm 10.7 8.2 4.6 66 2.8 NNW 7 7 4 4 1021.1 1021.5 0.0
28/05:30pm 12.7 10.3 5.1 60 3.6 NNW 7 9 4 5 1021.1 - 0.0
28/05:00pm 14.7 11.5 5.2 53 4.5 NW 11 15 6 8 1021.0 1021.4 0.0
28/04:30pm 15.8 12.1 6.3 53 4.7 NW 15 19 8 10 1021.0 - 0.0
28/04:00pm 16.0 11.6 5.0 48 5.3 NNW 17 20 9 11 1021.1 1021.5 0.0
28/03:30pm 16.6 12.5 6.4 51 5.1 WNW 17 24 9 13 1021.1 - 0.0
28/03:00pm 16.6 12.4 5.9 49 5.2 NW 17 26 9 14 1021.2 1021.6 0.0
28/02:30pm 15.9 11.9 6.6 54 4.6 NW 17 26 9 14 1021.4 - 0.0
28/02:00pm 16.7 12.5 5.9 49 5.3 NW 17 26 9 14 1021.6 1022.0 0.0
28/01:30pm 15.4 11.8 6.9 57 4.2 NW 15 20 8 11 1021.9 - 0.0
28/01:00pm 15.8 12.4 7.8 59 4.1 NW 15 26 8 14 1022.3 1022.7 0.0
28/12:30pm 15.3 12.1 8.3 63 3.6 NW 15 24 8 13 1023.0 - 0.0
28/12:00pm 14.7 11.6 8.9 68 3.0 NW 15 20 8 11 1023.7 1024.1 0.0
28/11:30am 13.5 10.8 7.5 67 3.0 NW 11 15 6 8 1024.0 - 0.0
28/11:00am 12.5 10.2 7.6 72 2.4 NNW 9 13 5 7 1024.5 1024.9 0.0
28/10:30am 11.3 9.3 6.4 72 2.3 N 6 9 3 5 1024.7 - 0.0
28/10:00am 9.3 7.4 6.6 83 1.3 E 6 9 3 5 1024.9 1025.3 0.0
28/09:30am 7.5 5.3 6.3 92 0.6 ESE 7 9 4 5 1024.9 - 0.0
28/09:00am 5.9 3.3 5.9 100 0.0 SE 9 13 5 7 1024.9 1025.3 0.2
28/08:30am 4.4 2.4 4.4 100 0.0 ESE 4 9 2 5 1024.7 - 0.2
28/08:00am 2.5 0.5 2.5 100 0.0 E 2 7 1 4 1024.7 1025.1 0.2
28/07:43am 1.6 -1.5 1.6 100 0.0 ESE 7 9 4 5 1024.5 - 0.2
28/07:30am 0.6 -2.6 0.6 100 0.0 E 7 7 4 4 1024.6 - 0.2
28/07:00am 0.0 -3.7 -0.1 99 0.0 ESE 9 11 5 6 1024.4 1024.8 0.2
28/06:46am 0.1 -3.2 0.1 100 0.0 ESE 7 11 4 6 1024.3 - 0.2
28/06:30am 1.2 -2.3 1.2 100 0.0 SE 9 11 5 6 1024.3 - 0.2
28/06:00am 1.4 -1.5 1.4 100 0.0 SE 6 11 3 6 1024.0 1024.4 0.2
28/05:30am 1.8 -2.0 1.8 100 0.0 SSE 11 13 6 7 1023.9 - 0.2
28/05:00am 1.2 -2.3 1.2 100 0.0 SE 9 11 5 6 1023.5 1023.8 0.2
28/04:30am 1.7 -2.1 1.7 100 0.0 SSE 11 13 6 7 1023.5 - 0.2
28/04:00am 1.2 -2.3 1.1 99 0.0 SE 9 11 5 6 1023.6 1023.9 0.2
28/03:30am 1.2 -2.3 1.1 99 0.0 SE 9 11 5 6 1023.5 - 0.2
28/03:23am 1.4 -2.1 1.3 99 0.0 SE 9 9 5 5 1023.5 - 0.2
28/03:00am 1.5 -1.6 1.4 99 0.0 ESE 7 9 4 5 1023.7 1024.1 0.2
28/02:56am 1.4 -1.5 1.3 99 0.0 SE 6 9 3 5 1023.8 - 0.2
28/02:30am 2.5 -1.6 2.5 100 0.0 SSE 13 15 7 8 1024.0 - 0.2
28/02:00am 2.5 -1.6 2.4 99 0.0 SSE 13 15 7 8 1024.1 1024.5 0.2
28/01:40am 2.0 -2.2 1.9 99 0.0 SSE 13 13 7 7 1024.1 - 0.2
28/01:30am 2.2 -1.9 2.1 99 0.0 SE 13 13 7 7 1024.2 - 0.2
28/01:22am 2.1 -1.3 2.0 99 0.0 SE 9 11 5 6 1024.1 - 0.2
28/01:00am 3.2 -0.4 3.1 99 0.0 SSE 11 15 6 8 1024.3 1024.7 0.2
28/12:30am 3.7 1.2 3.6 99 0.0 SSE 6 11 3 6 1024.0 - 0.2
28/12:00am 3.1 1.4 1.9 92 0.5 CALM 0 4 0 2 1023.9 1024.3 0.2
 
Date/Time
EST
Temp
°C
App
Temp
°C
Dew
Point
Rel
Hum
%
Delta-T
°C
Wind Press
QNH
hPa
Press
MSL
hPa
Rain
since 9 am
mm
Dir
 
Spd
km/h
Gust
km/h
Spd
kts
Gust
kts
27/11:30pm 4.7 1.6 3.7 93 0.4 ESE 9 11 5 6 1024.2 - 0.2
27/11:00pm 5.3 2.9 4.4 94 0.4 E 6 7 3 4 1024.5 1024.9 0.2
27/10:30pm 5.3 2.4 4.4 94 0.4 E 9 11 5 6 1024.5 - 0.2
27/10:00pm 5.5 3.2 4.9 96 0.3 ENE 6 7 3 4 1025.0 1025.4 0.2
27/09:30pm 5.6 3.1 5.0 96 0.3 ENE 7 9 4 5 1025.2 - 0.2
27/09:00pm 4.4 1.0 2.1 85 0.9 SE 9 11 5 6 1025.5 1025.9 0.2
27/08:30pm 6.9 3.1 3.9 81 1.3 SSE 13 13 7 7 1025.6 - 0.2
27/08:00pm 8.1 4.5 5.2 82 1.3 S 13 15 7 8 1025.7 1026.1 0.2
27/07:30pm 8.5 5.3 5.3 80 1.5 S 11 13 6 7 1025.7 - 0.2
27/07:00pm 8.8 5.7 5.5 80 1.5 S 11 13 6 7 1025.6 1026.0 0.2
27/06:30pm 9.2 6.5 5.6 78 1.7 SSW 9 11 5 6 1025.4 - 0.2
27/06:00pm 10.2 7.5 5.8 74 2.0 SSW 9 9 5 5 1025.2 1025.6 0.2
27/05:30pm 11.4 8.2 5.1 65 2.9 SW 11 15 6 8 1024.8 - 0.2
27/05:00pm 13.5 10.5 6.1 61 3.6 SW 11 17 6 9 1024.5 1024.9 0.2
27/04:30pm 14.8 11.5 6.4 57 4.1 SW 13 19 7 10 1024.4 - 0.2
27/04:00pm 15.2 11.5 6.5 56 4.3 WSW 15 20 8 11 1024.4 1024.8 0.2
27/03:30pm 15.5 11.0 6.0 53 4.6 WSW 19 26 10 14 1024.3 - 0.2
27/03:00pm 15.8 11.7 6.3 53 4.7 W 17 22 9 12 1024.2 1024.6 0.2
27/02:30pm 15.9 12.3 6.6 54 4.6 W 15 22 8 12 1024.2 - 0.2
27/02:00pm 16.2 12.1 6.3 52 4.9 S 17 22 9 12 1024.5 1024.9 0.2
27/01:30pm 16.1 11.6 6.3 52 4.8 SW 19 24 10 13 1024.9 - 0.2
27/01:00pm 15.0 13.5 8.5 65 3.3 NNW 6 11 3 6 1025.3 1025.7 0.2
27/12:30pm 13.6 12.0 8.7 72 2.5 W 7 11 4 6 1025.9 - 0.2
27/12:00pm 13.6 12.0 8.2 70 2.7 S 6 11 3 6 1026.4 1026.8 0.2
27/11:30am 13.3 11.2 8.4 72 2.5 ESE 9 13 5 7 1027.1 - 0.2
27/11:00am 12.3 9.5 8.6 78 1.9 SE 13 17 7 9 1027.5 1027.9 0.2
27/10:30am 11.4 8.2 8.3 81 1.5 SSE 15 19 8 10 1027.8 - 0.0
27/10:00am 10.6 8.7 9.2 91 0.7 SSE 9 13 5 7 1027.9 1028.3 0.0
27/09:30am 8.5 6.1 8.5 100 0.0 ESE 11 13 6 7 1027.8 - 0.0
27/09:18am 7.4 5.5 7.4 100 0.0 SE 7 9 4 5 1027.8 - 0.0
27/09:16am 7.6 5.7 7.6 100 0.0 SE 7 9 4 5 1027.8 - 0.0
27/09:00am 6.2 3.6 6.2 100 0.0 SSE 9 9 5 5 1027.7 1028.1 0.0
27/08:37am 5.7 4.0 5.7 100 0.0 E 4 9 2 5 1027.7 - 0.0
27/08:30am 5.4 4.4 5.4 100 0.0 CALM 0 0 0 0 1027.6 - 0.0
27/08:24am 5.0 3.9 5.0 100 0.0 CALM 0 0 0 0 1027.5 - 0.0
27/08:00am 2.8 1.3 2.8 100 0.0 CALM 0 0 0 0 1027.3 1027.7 0.0
27/07:51am 2.3 0.7 2.3 100 0.0 CALM 0 0 0 0 1027.2 - 0.0
27/07:47am 1.9 0.2 1.9 100 0.0 CALM 0 0 0 0 1027.2 - 0.0
27/07:39am 1.8 0.1 1.8 100 0.0 CALM 0 0 0 0 1027.1 - 0.0
27/07:30am 1.4 -0.4 1.4 100 0.0 CALM 0 0 0 0 1026.9 - 0.0
27/07:00am 1.2 -1.0 1.2 100 0.0 SE 2 7 1 4 1026.5 1027.0 0.0
27/06:30am 1.4 -1.7 1.4 100 0.0 E 7 9 4 5 1026.3 - 0.0
27/06:00am 2.2 -0.6 2.2 100 0.0 E 6 7 3 4 1026.0 1026.4 0.0
27/05:30am 1.1 -2.0 1.1 100 0.0 ESE 7 9 4 5 1026.0 - 0.0
27/05:00am 1.9 0.2 1.9 100 0.0 CALM 0 0 0 0 1025.9 1026.3 0.0
27/04:30am 1.9 -0.9 1.9 100 0.0 NE 6 7 3 4 1025.9 - 0.0
27/04:00am 3.9 2.6 3.9 100 0.0 CALM 0 0 0 0 1025.8 1026.2 0.0
27/03:30am 4.1 2.8 4.1 100 0.0 CALM 0 0 0 0 1025.8 - 0.0
27/03:00am 4.2 2.9 4.2 100 0.0 CALM 0 0 0 0 1025.8 1026.2 0.0
27/02:30am 4.0 2.7 4.0 100 0.0 CALM 0 0 0 0 1025.9 - 0.0
27/02:00am 4.3 3.0 4.3 100 0.0 CALM 0 0 0 0 1026.1 1026.5 0.0
27/01:54am 4.6 3.4 4.6 100 0.0 CALM 0 0 0 0 1026.0 - 0.0
27/01:30am 4.2 2.9 4.2 100 0.0 CALM 0 0 0 0 1026.1 - 0.0
27/01:00am 5.1 4.0 5.0 99 0.0 CALM 0 0 0 0 1026.3 1026.7 0.0
27/12:30am 5.2 4.1 5.1 99 0.0 CALM 0 0 0 0 1026.6 - 0.0
27/12:00am 5.8 4.7 5.1 95 0.3 CALM 0 6 0 3 1026.6 1027.1 0.0
 
Date/Time
EST
Temp
°C
App
Temp
°C
Dew
Point
Rel
Hum
%
Delta-T
°C
Wind Press
QNH
hPa
Press
MSL
hPa
Rain
since 9 am
mm
Dir
 
Spd
km/h
Gust
km/h
Spd
kts
Gust
kts
26/11:30pm 6.0 3.5 4.8 92 0.5 S 7 9 4 5 1026.4 - 0.0
26/11:00pm 7.2 6.3 6.0 92 0.5 CALM 0 0 0 0 1026.4 1026.8 0.0
26/10:30pm 7.2 4.8 4.5 83 1.2 WNW 6 7 3 4 1026.4 - 0.0
26/10:00pm 8.2 6.0 5.5 83 1.2 S 6 9 3 5 1026.3 1026.7 0.0
26/09:30pm 9.0 5.9 5.4 78 1.7 SSW 11 13 6 7 1026.2 - 0.0
26/09:00pm 10.8 7.5 6.2 73 2.2 SW 13 17 7 9 1026.1 1026.5 0.0
26/08:30pm 10.4 7.0 6.0 74 2.1 SW 13 19 7 10 1026.0 - 0.0
26/08:00pm 10.2 6.7 5.6 73 2.1 SW 13 15 7 8 1025.8 1026.2 0.0
26/07:30pm 11.1 7.7 6.0 71 2.4 SW 13 17 7 9 1025.5 - 0.0
26/07:00pm 10.9 7.8 5.4 69 2.5 SW 11 13 6 7 1025.3 1025.7 0.0
26/06:30pm 11.7 8.6 5.6 66 2.9 SW 11 13 6 7 1025.1 - 0.0
26/06:00pm 12.3 9.2 5.5 63 3.2 SW 11 13 6 7 1024.7 1025.1 0.0
26/05:30pm 13.4 10.2 5.3 58 3.8 SSW 11 15 6 8 1024.2 - 0.0
26/05:00pm 15.3 11.1 5.5 52 4.7 SW 17 22 9 12 1024.0 1024.4 0.0
26/04:30pm 16.6 12.8 5.9 49 5.3 SSW 15 19 8 10 1023.6 - 0.0
26/04:00pm 17.0 12.3 5.3 46 5.7 SW 19 28 10 15 1023.5 1023.8 0.0
26/03:30pm 17.1 13.2 6.9 51 5.1 SSW 17 24 9 13 1023.5 - 0.0
26/03:00pm 17.9 13.3 6.7 48 5.6 SW 20 30 11 16 1023.4 1023.7 0.0
26/02:30pm 17.4 13.4 6.6 49 5.4 SW 17 22 9 12 1023.2 - 0.0
26/02:00pm 18.3 13.8 6.8 47 5.8 SSW 20 32 11 17 1023.1 1023.5 0.0
26/01:30pm 17.8 13.4 7.5 51 5.3 SSW 20 28 11 15 1023.1 - 0.0
26/01:00pm 17.4 13.7 8.0 54 4.8 SW 17 26 9 14 1023.5 1023.8 0.0
26/12:30pm 16.1 12.4 7.8 58 4.2 SW 17 28 9 15 1024.0 - 0.0
26/12:00pm 16.2 14.2 10.1 67 3.2 SW 11 20 6 11 1024.5 1024.9 0.0
26/11:30am 15.9 14.8 13.0 83 1.6 W 11 17 6 9 1025.0 - 0.0
26/11:04am 15.0 13.3 12.5 85 1.4 WNW 13 20 7 11 1025.3 - 0.0
26/11:00am 15.1 13.6 13.1 88 1.1 WNW 13 17 7 9 1025.3 1025.7 0.0
26/10:54am 14.8 13.8 13.3 91 0.8 W 11 17 6 9 1025.3 - 0.0
26/10:30am 13.8 13.3 12.7 93 0.6 WSW 7 9 4 5 1025.5 - 0.0
26/10:00am 13.3 13.3 12.4 94 0.5 NNW 4 7 2 4 1025.3 1025.7 0.0
26/09:30am 13.2 12.8 13.0 99 0.1 NE 7 9 4 5 1024.9 - 0.0
26/09:00am 12.5 12.0 12.5 100 0.0 ENE 7 9 4 5 1024.5 1024.9 6.8
26/08:30am 12.1 11.4 12.1 100 0.0 ESE 7 9 4 5 1024.4 - 6.8
26/08:18am 12.1 11.4 12.1 100 0.0 S 7 9 4 5 1024.3 - 6.8
26/08:00am 11.5 9.5 11.5 100 0.0 W 13 20 7 11 1024.8 1025.2 6.4
26/07:55am 11.4 8.6 11.4 100 0.0 WNW 17 20 9 11 1025.2 - 5.4
26/07:30am 11.4 11.1 11.4 100 0.0 N 4 7 2 4 1024.1 - 3.8
26/07:00am 11.2 10.4 11.2 100 0.0 ENE 6 7 3 4 1023.5 1023.8 3.6
26/06:30am 11.2 9.9 11.2 100 0.0 NNE 9 11 5 6 1023.5 - 3.6
26/06:00am 11.0 9.2 11.0 100 0.0 NE 11 11 6 6 1023.1 1023.5 3.6
26/05:30am 11.1 11.1 11.1 100 0.0 NE 2 6 1 3 1022.9 - 3.6
26/05:00am 11.3 9.6 11.3 100 0.0 NE 11 13 6 7 1022.4 1022.8 3.6
26/04:30am 11.4 9.8 11.4 100 0.0 ENE 11 13 6 7 1022.3 - 3.6
26/04:00am 11.7 9.8 11.7 100 0.0 NE 13 17 7 9 1022.4 1022.8 3.6
26/03:30am 11.3 9.6 11.3 100 0.0 E 11 15 6 8 1022.4 - 3.6
26/03:00am 11.5 9.9 11.5 100 0.0 ESE 11 13 6 7 1022.9 1023.3 3.6
26/02:30am 11.0 10.0 11.0 100 0.0 SE 7 11 4 6 1022.8 - 3.4
26/02:00am 11.3 10.4 11.3 100 0.0 ENE 7 9 4 5 1022.5 1022.9 3.4
26/01:30am 12.3 11.1 11.7 96 0.3 N 9 15 5 8 1022.7 - 3.4
26/01:17am 12.6 10.5 12.3 98 0.2 N 15 20 8 11 1023.0 - 3.4
26/01:05am 12.7 9.9 12.7 100 0.0 NNE 19 26 10 14 1022.9 - 3.0
26/01:00am 12.4 10.3 12.4 100 0.0 ENE 15 22 8 12 1022.9 1023.3 2.2
26/12:30am 11.6 8.3 11.6 100 0.0 SSE 20 24 11 13 1022.1 - 0.6
26/12:00am 11.4 9.8 11.4 100 0.0 SSE 11 15 6 8 1022.6 1023.0 0.6
 
Date/Time
EST
Temp
°C
App
Temp
°C
Dew
Point
Rel
Hum
%
Delta-T
°C
Wind Press
QNH
hPa
Press
MSL
hPa
Rain
since 9 am
mm
Dir
 
Spd
km/h
Gust
km/h
Spd
kts
Gust
kts
25/11:30pm 11.3 9.6 11.3 100 0.0 SSE 11 15 6 8 1022.5 - 0.6
25/11:00pm 11.6 10.7 11.3 98 0.2 SE 7 11 4 6 1023.0 1023.4 0.6
25/10:30pm 11.7 10.5 11.7 100 0.0 SE 9 15 5 8 1023.2 - 0.4

Other Formats:

Comma delimited format used in spreadsheet applications
http://www.bom.gov.au/fwo/IDN60801/IDN60801.95719.axf

JavaScript Object Notation format (JSON) in row-major order
http://www.bom.gov.au/fwo/IDN60801/IDN60801.95719.json